Time;durP1;ratioP1;P1;durP2;ratioP2;P2;SDS_P1;SDS_P2;PMS_P1;PMS_P2;Temp;Humidity;BMP_temperature;BMP_pressure;BME280_temperature;BME280_humidity;BME280_pressure;Samples;Min_cycle;Max_cycle;Signal;HPM_P1;HPM_P2
2022/01/28 00:00:51;;;;;;;26.65;3.92;;;3.90;67.40;;;;;;4163097;28;20025;-86
2022/01/28 00:03:05;;;;;;;41.55;4.15;;;3.90;67.50;;;;;;4160654;28;20441;-85
2022/01/28 00:05:13;;;;;;;26.90;3.65;;;3.90;67.30;;;;;;4147359;28;20518;-86
2022/01/28 00:07:13;;;;;;;32.92;5.03;;;3.90;66.90;;;;;;4154002;28;20065;-86
2022/01/28 00:09:14;;;;;;;39.92;4.45;;;3.80;66.70;;;;;;4158591;28;20025;-85
2022/01/28 00:11:15;;;;;;;31.95;3.95;;;3.90;66.60;;;;;;4165280;28;20045;-85
2022/01/28 00:13:24;;;;;;;26.05;3.33;;;3.90;66.60;;;;;;4154531;28;20076;-84
2022/01/28 00:15:34;;;;;;;39.75;4.95;;;3.90;66.70;;;;;;4155045;28;20029;-84
2022/01/28 00:18:37;;;;;;;31.98;5.13;;;4.00;66.50;;;;;;4154690;28;20121;-84
2022/01/28 00:38:28;;;;;;;24.85;4.25;;;3.90;66.70;;;;;;4161299;28;20033;-85
2022/01/28 00:40:29;;;;;;;35.13;4.35;;;3.90;66.90;;;;;;4144466;28;20057;-85
2022/01/28 00:42:30;;;;;;;29.63;4.07;;;4.00;67.20;;;;;;4170348;28;20375;-85
2022/01/28 00:44:31;;;;;;;43.42;5.40;;;3.90;67.60;;;;;;4158262;28;20041;-85
2022/01/28 00:46:31;;;;;;;37.83;4.65;;;3.90;67.90;;;;;;4155434;28;20447;-85
2022/01/28 00:48:32;;;;;;;26.63;4.35;;;3.90;68.00;;;;;;4174563;28;20059;-85
2022/01/28 00:50:33;;;;;;;44.60;4.97;;;3.90;68.50;;;;;;4144046;28;20041;-84
2022/01/28 00:52:33;;;;;;;27.83;3.97;;;3.90;67.60;;;;;;4157231;28;20045;-84
2022/01/28 00:54:34;;;;;;;33.45;4.28;;;3.80;67.20;;;;;;4159750;28;20026;-85
2022/01/28 00:56:34;;;;;;;35.00;4.57;;;3.80;66.60;;;;;;4158981;28;20139;-84
2022/01/28 00:58:35;;;;;;;39.67;4.63;;;3.80;65.50;;;;;;4156723;28;20153;-85
2022/01/28 01:00:35;;;;;;;26.58;4.50;;;3.80;65.40;;;;;;4142878;28;20026;-85
2022/01/28 01:02:36;;;;;;;33.05;5.32;;;3.80;66.10;;;;;;4158659;28;20060;-85
2022/01/28 01:04:37;;;;;;;28.33;4.53;;;3.80;66.20;;;;;;4159424;28;20064;-84
2022/01/28 01:06:37;;;;;;;31.80;3.92;;;3.80;65.70;;;;;;4160004;28;20037;-84
2022/01/28 01:08:38;;;;;;;35.63;4.53;;;3.90;65.20;;;;;;4154920;28;20033;-84
2022/01/28 01:10:39;;;;;;;22.40;3.67;;;3.80;64.50;;;;;;4156998;28;20038;-85
2022/01/28 01:12:46;;;;;;;26.52;3.85;;;3.80;64.10;;;;;;4157958;28;20060;-85
2022/01/28 01:14:47;;;;;;;28.20;4.15;;;3.80;63.90;;;;;;4141515;28;20026;-85
2022/01/28 01:17:07;;;;;;;37.35;4.32;;;3.80;63.20;;;;;;4155704;28;20546;-85
2022/01/28 01:21:18;;;;;;;28.25;3.83;;;3.80;63.20;;;;;;4148828;28;20519;-86
2022/01/28 01:23:25;;;;;;;34.35;4.93;;;3.80;63.20;;;;;;4153991;28;20462;-87
2022/01/28 01:25:28;;;;;;;38.17;4.32;;;3.80;63.00;;;;;;4143092;28;20073;-84
2022/01/28 01:27:29;;;;;;;24.25;3.65;;;3.80;63.20;;;;;;4155074;28;20104;-84
2022/01/28 01:29:29;;;;;;;36.55;5.53;;;3.70;63.00;;;;;;4157443;28;20029;-84
2022/01/28 01:31:30;;;;;;;29.80;4.63;;;3.80;63.20;;;;;;4157283;28;20465;-85
2022/01/28 01:33:35;;;;;;;33.08;4.78;;;3.80;63.00;;;;;;4151851;28;20030;-86
2022/01/28 01:35:36;;;;;;;48.20;6.20;;;3.80;63.20;;;;;;4144997;28;20042;-85
2022/01/28 01:37:37;;;;;;;28.30;5.10;;;3.80;63.50;;;;;;4156656;28;20061;-85
2022/01/28 01:39:39;;;;;;;35.35;4.25;;;3.80;63.90;;;;;;4156944;28;20469;-84
2022/01/28 01:41:44;;;;;;;36.92;4.65;;;3.80;63.90;;;;;;4159462;28;20466;-85
2022/01/28 01:53:04;;;;;;;33.55;3.72;;;3.80;63.90;;;;;;4154661;28;20401;-85
2022/01/28 01:55:05;;;;;;;39.22;5.07;;;3.80;63.60;;;;;;4147240;28;20029;-84
2022/01/28 01:57:07;;;;;;;35.00;4.32;;;3.80;63.10;;;;;;4152161;28;20022;-84
2022/01/28 01:59:08;;;;;;;38.13;4.87;;;3.80;62.90;;;;;;4150982;28;20532;-84
2022/01/28 02:01:09;;;;;;;32.70;4.93;;;3.80;62.60;;;;;;4148643;28;20808;-84
2022/01/28 02:03:10;;;;;;;33.13;4.05;;;3.80;62.50;;;;;;4142090;28;20030;-84
2022/01/28 02:05:10;;;;;;;40.80;4.53;;;3.80;62.20;;;;;;4156566;28;20153;-84
2022/01/28 02:07:12;;;;;;;37.65;4.07;;;3.80;61.90;;;;;;4155594;28;20021;-84
2022/01/28 02:09:13;;;;;;;33.83;4.55;;;3.70;61.70;;;;;;4141022;28;20038;-84
2022/01/28 02:11:14;;;;;;;30.05;4.53;;;3.70;61.50;;;;;;4167710;28;20701;-84
2022/01/28 02:13:14;;;;;;;32.08;4.22;;;3.70;61.00;;;;;;4157486;28;20088;-83
2022/01/28 02:15:16;;;;;;;28.35;3.53;;;3.80;60.80;;;;;;4167955;28;20021;-84
2022/01/28 02:17:16;;;;;;;29.15;3.50;;;3.80;60.50;;;;;;4161694;28;20026;-83
2022/01/28 02:19:17;;;;;;;24.55;4.10;;;3.80;60.30;;;;;;4165917;28;20543;-85
2022/01/28 02:21:18;;;;;;;25.50;3.42;;;3.80;60.10;;;;;;4167284;28;20080;-85
2022/01/28 02:23:21;;;;;;;33.75;3.78;;;3.80;60.20;;;;;;4161454;28;20029;-85
2022/01/28 02:25:26;;;;;;;32.88;4.35;;;3.80;60.30;;;;;;4159368;28;20061;-85
2022/01/28 02:27:27;;;;;;;32.80;3.72;;;3.80;60.30;;;;;;4164186;28;20029;-85
2022/01/28 02:29:30;;;;;;;30.15;3.95;;;3.80;60.10;;;;;;4174203;28;20025;-84
2022/01/28 02:31:31;;;;;;;;;;;3.80;60.40;;;;;;4159841;28;20033;-85
2022/01/28 02:33:31;;;;;;;39.67;5.32;;;3.80;60.70;;;;;;4168475;28;20417;-84
2022/01/28 02:35:32;;;;;;;33.60;5.03;;;3.70;60.80;;;;;;4155725;28;20029;-85
2022/01/28 02:37:32;;;;;;;34.72;5.15;;;3.70;60.90;;;;;;4164973;28;20033;-86
2022/01/28 02:39:33;;;;;;;31.48;4.10;;;3.70;61.30;;;;;;4151037;28;20437;-85
2022/01/28 02:41:38;;;;;;;28.40;4.22;;;3.70;61.40;;;;;;4146873;28;20104;-85
2022/01/28 02:43:45;;;;;;;42.47;5.45;;;3.70;61.60;;;;;;4159130;28;20037;-85
2022/01/28 02:45:46;;;;;;;40.40;4.53;;;3.70;61.90;;;;;;4147012;28;20124;-84
2022/01/28 02:47:50;;;;;;;34.40;3.83;;;3.60;61.90;;;;;;4161538;28;20415;-85
2022/01/28 02:49:52;;;;;;;42.80;5.47;;;3.60;62.00;;;;;;4163619;28;20456;-84
2022/01/28 02:51:54;;;;;;;29.05;3.90;;;3.60;61.80;;;;;;4161358;28;20048;-85
2022/01/28 02:53:57;;;;;;;31.90;4.43;;;3.50;61.80;;;;;;4169496;28;20504;-84
2022/01/28 02:56:02;;;;;;;32.20;3.95;;;3.60;62.80;;;;;;4159494;28;20442;-85
2022/01/28 02:58:15;;;;;;;35.13;4.45;;;3.50;61.80;;;;;;4165226;28;20360;-85
2022/01/28 03:00:16;;;;;;;40.00;4.60;;;3.50;61.80;;;;;;4150356;28;20029;-85
2022/01/28 03:02:17;;;;;;;33.83;4.05;;;3.50;61.90;;;;;;4162027;28;20060;-84
2022/01/28 03:06:33;;;;;;;30.73;4.80;;;3.50;61.90;;;;;;4156844;28;20033;-85
2022/01/28 03:08:34;;;;;;;36.88;4.47;;;3.50;62.00;;;;;;4158501;28;20030;-85
2022/01/28 03:12:58;;;;;;;42.33;4.88;;;3.50;62.30;;;;;;4157400;28;20092;-83
2022/01/28 03:15:03;;;;;;;37.50;3.85;;;3.50;62.70;;;;;;4170053;28;20063;-84
2022/01/28 03:19:17;;;;;;;41.65;5.10;;;3.50;62.60;;;;;;4162693;28;20391;-85
2022/01/28 03:21:22;;;;;;;28.15;4.85;;;3.50;62.40;;;;;;4175784;28;20025;-83
2022/01/28 03:23:24;;;;;;;26.52;5.20;;;3.50;62.20;;;;;;4161622;28;20022;-84
2022/01/28 03:25:25;;;;;;;38.55;4.90;;;3.50;61.90;;;;;;4162758;28;20032;-84
2022/01/28 03:28:00;;;;;;;26.15;3.53;;;3.50;61.90;;;;;;4168167;28;20029;-85
2022/01/28 03:29:52;;;;;;;22.33;3.65;;;3.50;61.80;;;;;;4156182;28;20083;-85
2022/01/28 03:31:53;;;;;;;25.75;3.72;;;3.50;61.50;;;;;;4161602;28;20104;-85
2022/01/28 03:33:53;;;;;;;31.15;4.15;;;3.50;61.60;;;;;;4160662;28;20060;-84
2022/01/28 03:35:54;;;;;;;25.77;3.53;;;3.40;61.30;;;;;;4167221;28;20044;-85
2022/01/28 03:38:01;;;;;;;27.55;3.97;;;3.50;61.50;;;;;;4158576;28;20026;-84
2022/01/28 03:40:07;;;;;;;29.27;4.53;;;3.50;61.60;;;;;;4162151;28;20391;-83
2022/01/28 03:42:07;;;;;;;31.00;4.03;;;3.40;61.60;;;;;;4150922;28;20037;-84
2022/01/28 03:44:08;;;;;;;34.58;4.15;;;3.50;61.80;;;;;;4143010;28;20156;-83
2022/01/28 03:46:09;;;;;;;40.50;4.15;;;3.50;61.80;;;;;;4160701;28;20022;-84
2022/01/28 03:48:10;;;;;;;46.65;4.93;;;3.40;61.80;;;;;;4164628;28;20040;-84
2022/01/28 03:50:10;;;;;;;34.35;4.40;;;3.40;61.60;;;;;;4154872;28;20029;-84
2022/01/28 03:52:11;;;;;;;43.55;3.83;;;3.40;61.60;;;;;;4159591;28;20037;-84
2022/01/28 03:54:12;;;;;;;26.60;4.50;;;3.40;61.60;;;;;;4156105;28;20401;-85
2022/01/28 03:56:12;;;;;;;26.50;3.90;;;3.40;60.70;;;;;;4163033;28;20033;-85
2022/01/28 03:58:15;;;;;;;43.50;4.97;;;3.40;61.20;;;;;;4161672;28;20030;-85
2022/01/28 04:00:17;;;;;;;32.97;4.45;;;3.40;60.70;;;;;;4156674;28;20025;-84
2022/01/28 04:02:25;;;;;;;47.75;5.22;;;3.40;59.30;;;;;;4168972;28;20498;-84
2022/01/28 04:13:18;;;;;;;;;;;3.50;58.30;;;;;;4165208;28;20032;-85
2022/01/28 04:15:47;;;;;;;37.83;3.63;;;3.50;58.40;;;;;;4172111;28;19909;-86
2022/01/28 04:17:45;;;;;;;26.88;3.67;;;3.50;58.30;;;;;;4163548;28;20108;-86
2022/01/28 04:19:47;;;;;;;26.05;4.03;;;3.50;58.40;;;;;;4158363;28;20045;-86
2022/01/28 04:21:47;;;;;;;31.88;3.45;;;3.50;58.60;;;;;;4166491;28;20128;-86
2022/01/28 04:23:48;;;;;;;28.73;3.83;;;3.50;58.80;;;;;;4148657;28;20030;-86
2022/01/28 04:25:48;;;;;;;30.08;3.75;;;3.40;58.60;;;;;;4162911;28;20061;-86
2022/01/28 04:27:49;;;;;;;29.23;3.38;;;3.40;59.10;;;;;;4162056;28;20021;-86
2022/01/28 04:29:49;;;;;;;32.58;4.03;;;3.40;58.70;;;;;;4173001;28;20037;-86
2022/01/28 04:31:50;;;;;;;34.10;4.13;;;3.40;58.60;;;;;;4164874;28;20124;-86
2022/01/28 04:33:53;;;;;;;26.67;3.20;;;3.30;58.80;;;;;;4171747;28;20025;-85
2022/01/28 04:35:55;;;;;;;24.92;3.90;;;3.30;58.90;;;;;;4147573;28;20034;-86
2022/01/28 04:40:22;;;;;;;31.92;4.20;;;3.30;59.10;;;;;;4167481;28;20650;-86
2022/01/28 04:44:52;;;;;;;36.17;4.40;;;3.30;59.40;;;;;;4165082;28;20068;-86
2022/01/28 04:47:00;;;;;;;35.75;4.60;;;3.30;59.40;;;;;;4167148;28;20396;-85
2022/01/28 04:49:11;;;;;;;43.58;5.15;;;3.20;59.40;;;;;;4164082;28;20075;-86
2022/01/28 04:51:23;;;;;;;49.78;4.90;;;3.30;59.70;;;;;;4159867;28;20080;-84
2022/01/28 04:58:11;;;;;;;35.65;4.45;;;3.20;59.70;;;;;;4170164;28;19901;-85
2022/01/28 05:02:43;;;;;;;41.30;4.45;;;3.20;59.90;;;;;;4184722;28;20021;-86
2022/01/28 05:09:39;;;;;;;31.05;3.97;;;3.10;60.30;;;;;;4168801;28;20077;-86
2022/01/28 05:26:59;;;;;;;53.88;4.43;;;2.90;60.90;;;;;;4163207;28;20025;-82
2022/01/28 05:29:00;;;;;;;46.22;4.75;;;2.90;60.90;;;;;;4165360;28;20021;-83
2022/01/28 05:31:00;;;;;;;39.38;4.97;;;2.90;61.10;;;;;;4152174;28;20491;-83
2022/01/28 05:33:01;;;;;;;43.33;4.35;;;2.90;61.30;;;;;;4159692;28;20599;-82
2022/01/28 05:35:02;;;;;;;35.00;4.28;;;2.80;61.30;;;;;;4170444;28;20049;-83
2022/01/28 05:37:03;;;;;;;29.55;4.18;;;2.80;61.90;;;;;;4133235;28;20558;-83
2022/01/28 05:39:04;;;;;;;27.23;3.67;;;2.80;61.30;;;;;;4156984;28;20392;-83
2022/01/28 05:41:05;;;;;;;37.67;4.20;;;2.80;61.50;;;;;;4168120;28;20167;-83
2022/01/28 05:43:05;;;;;;;24.23;3.50;;;2.80;62.20;;;;;;4154806;28;20029;-83
2022/01/28 05:45:06;;;;;;;28.45;3.65;;;2.80;61.50;;;;;;4149020;28;20033;-82
2022/01/28 05:47:07;;;;;;;40.33;3.95;;;2.80;61.60;;;;;;4155964;28;20112;-82
2022/01/28 05:49:08;;;;;;;36.33;4.13;;;2.80;61.70;;;;;;4169474;28;20516;-83
2022/01/28 05:51:08;;;;;;;40.00;4.72;;;2.80;61.70;;;;;;4156740;28;20219;-83
2022/01/28 05:53:10;;;;;;;34.75;4.03;;;2.70;61.90;;;;;;4156429;28;20049;-83
2022/01/28 05:55:11;;;;;;;45.03;5.63;;;2.70;62.00;;;;;;4153188;28;20037;-83
2022/01/28 05:57:11;;;;;;;37.38;5.00;;;2.70;62.30;;;;;;4164598;28;20033;-82
2022/01/28 05:59:12;;;;;;;40.58;4.10;;;2.70;62.40;;;;;;4161640;28;20033;-83
2022/01/28 06:01:12;;;;;;;33.10;4.15;;;2.60;62.40;;;;;;4155249;28;20029;-84
2022/01/28 06:03:13;;;;;;;41.03;5.00;;;2.60;62.60;;;;;;4160545;28;20392;-83
2022/01/28 06:05:14;;;;;;;32.83;4.00;;;2.60;62.60;;;;;;4148356;28;20041;-82
2022/01/28 06:07:14;;;;;;;38.95;4.50;;;2.60;62.80;;;;;;4153699;28;20371;-82
2022/01/28 06:09:15;;;;;;;36.55;4.45;;;2.60;62.70;;;;;;4155914;28;20037;-83
2022/01/28 06:11:16;;;;;;;24.55;3.83;;;2.60;62.60;;;;;;4152288;28;20048;-83
2022/01/28 06:13:16;;;;;;;47.25;4.55;;;2.50;62.80;;;;;;4149195;28;20049;-83
2022/01/28 06:15:17;;;;;;;24.77;3.30;;;2.50;62.80;;;;;;4157966;28;20022;-83
2022/01/28 06:17:18;;;;;;;29.23;4.10;;;2.50;63.00;;;;;;4156433;28;20030;-83
2022/01/28 06:19:18;;;;;;;31.73;4.68;;;2.50;63.00;;;;;;4170356;28;20045;-82
2022/01/28 06:21:19;;;;;;;29.15;4.15;;;2.50;63.00;;;;;;4153706;28;20037;-83
2022/01/28 06:23:20;;;;;;;29.77;4.00;;;2.50;63.10;;;;;;4155502;28;20025;-82
2022/01/28 06:25:20;;;;;;;23.42;2.85;;;2.50;63.20;;;;;;4154833;28;20021;-82
2022/01/28 06:27:22;;;;;;;26.70;4.38;;;2.50;63.20;;;;;;4154763;28;20041;-82
2022/01/28 06:29:23;;;;;;;33.33;4.65;;;2.40;63.20;;;;;;4158571;28;20029;-83
2022/01/28 06:31:23;;;;;;;20.88;3.40;;;2.40;63.30;;;;;;4154481;28;20393;-83
2022/01/28 06:33:24;;;;;;;25.05;3.80;;;2.40;63.30;;;;;;4139601;28;20034;-82
2022/01/28 06:35:25;;;;;;;30.73;5.15;;;2.40;63.50;;;;;;4170112;28;20635;-82
2022/01/28 06:37:26;;;;;;;28.90;4.25;;;2.40;63.50;;;;;;4159572;28;20034;-83
2022/01/28 06:39:26;;;;;;;35.65;3.70;;;2.40;63.50;;;;;;4154587;28;20380;-82
2022/01/28 06:41:27;;;;;;;25.23;4.32;;;2.40;63.50;;;;;;4153176;28;20040;-82
2022/01/28 06:43:28;;;;;;;28.58;4.63;;;2.40;63.60;;;;;;4154885;28;20036;-83
2022/01/28 06:45:28;;;;;;;33.83;4.15;;;2.40;63.70;;;;;;4155741;28;20026;-82
2022/01/28 06:47:29;;;;;;;37.63;4.18;;;2.40;63.80;;;;;;4156895;28;20052;-83
2022/01/28 06:49:30;;;;;;;32.65;4.30;;;2.40;63.80;;;;;;4161554;28;20030;-81
2022/01/28 06:51:32;;;;;;;29.00;3.33;;;2.40;63.90;;;;;;4141411;28;20107;-81
2022/01/28 06:53:32;;;;;;;27.80;3.70;;;2.30;64.00;;;;;;4162114;28;20037;-81
2022/01/28 06:55:33;;;;;;;31.77;3.30;;;2.30;64.10;;;;;;4156839;28;20487;-80
2022/01/28 06:57:34;;;;;;;27.42;4.03;;;2.30;64.20;;;;;;4160464;28;20045;-81
2022/01/28 06:59:34;;;;;;;32.03;4.28;;;2.30;64.20;;;;;;4163686;28;20028;-81
2022/01/28 07:01:36;;;;;;;26.55;3.40;;;2.30;64.20;;;;;;4164232;28;20503;-81
2022/01/28 07:03:36;;;;;;;24.40;3.15;;;2.30;64.30;;;;;;4161528;28;20044;-81
2022/01/28 07:05:37;;;;;;;23.50;3.60;;;2.30;65.20;;;;;;4176265;28;20498;-82
2022/01/28 07:07:38;;;;;;;36.30;4.15;;;2.30;64.40;;;;;;4163889;28;20041;-82
2022/01/28 07:09:38;;;;;;;25.52;3.35;;;2.30;64.50;;;;;;4161682;28;20029;-81
2022/01/28 07:11:39;;;;;;;26.98;3.83;;;2.30;64.60;;;;;;4162764;28;20041;-82
2022/01/28 07:13:40;;;;;;;18.88;3.20;;;2.30;64.70;;;;;;4160231;28;20037;-82
2022/01/28 07:15:40;;;;;;;25.52;3.10;;;2.30;64.70;;;;;;4137411;28;20026;-82
2022/01/28 07:17:41;;;;;;;34.22;3.60;;;2.20;64.60;;;;;;4161094;28;20105;-82
2022/01/28 07:19:42;;;;;;;26.95;3.83;;;2.20;64.70;;;;;;4177686;28;20610;-82
2022/01/28 07:21:42;;;;;;;27.02;3.65;;;2.30;64.70;;;;;;4160111;28;20026;-82
2022/01/28 07:23:43;;;;;;;27.48;3.80;;;2.30;64.80;;;;;;4158577;28;20038;-82
2022/01/28 07:25:43;;;;;;;34.70;4.43;;;2.20;64.80;;;;;;4161045;28;20057;-82
2022/01/28 07:27:44;;;;;;;33.53;4.57;;;2.20;64.90;;;;;;4165038;28;20095;-82
2022/01/28 07:29:46;;;;;;;27.55;3.70;;;2.20;64.90;;;;;;4161090;28;20050;-82
2022/01/28 07:31:47;;;;;;;25.48;3.47;;;2.20;65.00;;;;;;4149590;28;20042;-82
2022/01/28 07:33:48;;;;;;;37.70;3.72;;;2.20;65.00;;;;;;4158096;28;20026;-82
2022/01/28 07:35:48;;;;;;;37.83;4.43;;;2.20;65.10;;;;;;4164580;28;20018;-82
2022/01/28 07:37:49;;;;;;;21.67;3.30;;;2.20;65.10;;;;;;4144635;28;20085;-82
2022/01/28 07:39:50;;;;;;;29.38;4.70;;;2.20;65.20;;;;;;4176938;28;20497;-81
2022/01/28 07:41:50;;;;;;;33.10;3.80;;;2.20;65.20;;;;;;4178366;28;20452;-82
2022/01/28 07:43:51;;;;;;;20.30;3.58;;;2.20;65.20;;;;;;4175364;28;20047;-82
2022/01/28 07:45:52;;;;;;;29.15;4.30;;;2.20;65.30;;;;;;4181038;28;20021;-80
2022/01/28 07:47:53;;;;;;;20.65;3.15;;;2.20;65.30;;;;;;4182683;28;20025;-80
2022/01/28 07:49:53;;;;;;;36.05;4.03;;;2.20;65.40;;;;;;4177837;28;20073;-81
2022/01/28 07:51:54;;;;;;;28.95;3.85;;;2.20;65.40;;;;;;4176848;28;20033;-80
2022/01/28 07:53:54;;;;;;;29.83;3.60;;;2.30;65.50;;;;;;4147333;28;20049;-82
2022/01/28 07:55:55;;;;;;;34.55;4.00;;;2.30;65.50;;;;;;4145159;28;20061;-82
2022/01/28 07:57:56;;;;;;;27.85;3.65;;;2.30;65.50;;;;;;4175063;28;20060;-81
2022/01/28 07:59:57;;;;;;;36.13;3.72;;;2.30;65.50;;;;;;4176625;28;20036;-82
2022/01/28 08:01:57;;;;;;;35.47;4.25;;;2.30;65.40;;;;;;4144081;28;20026;-82
2022/01/28 08:03:58;;;;;;;31.52;3.22;;;2.30;65.30;;;;;;4156814;28;20095;-82
2022/01/28 08:05:58;;;;;;;34.22;4.35;;;2.30;65.30;;;;;;4158097;28;20430;-82
2022/01/28 08:08:04;;;;;;;18.85;3.15;;;2.40;65.30;;;;;;4155834;28;20038;-82
2022/01/28 08:10:05;;;;;;;26.88;3.58;;;2.40;65.20;;;;;;4158427;28;20022;-81
2022/01/28 08:12:06;;;;;;;24.40;2.80;;;2.40;65.20;;;;;;4161988;28;20117;-81
2022/01/28 08:14:06;;;;;;;34.10;3.95;;;2.50;65.20;;;;;;4175746;28;20522;-81
2022/01/28 08:16:07;;;;;;;22.85;3.25;;;2.50;65.10;;;;;;4153956;28;20014;-82
2022/01/28 08:18:08;;;;;;;20.40;2.78;;;2.50;65.10;;;;;;4160292;28;20448;-81
2022/01/28 08:20:09;;;;;;;24.20;3.50;;;2.50;65.10;;;;;;4144602;28;20034;-82
2022/01/28 08:22:09;;;;;;;26.77;3.65;;;2.60;65.00;;;;;;4146038;28;20026;-82
2022/01/28 08:24:10;;;;;;;27.05;2.80;;;2.60;65.00;;;;;;4154697;28;20033;-82
2022/01/28 08:26:13;;;;;;;21.60;3.50;;;2.60;65.10;;;;;;4161095;28;20042;-82
2022/01/28 08:28:14;;;;;;;29.00;3.55;;;2.60;65.00;;;;;;4159358;28;20021;-82
2022/01/28 08:30:15;;;;;;;25.17;3.10;;;2.60;65.00;;;;;;4153869;28;20503;-82
2022/01/28 08:32:16;;;;;;;37.63;3.80;;;2.60;64.80;;;;;;4149984;28;20045;-82
2022/01/28 08:34:16;;;;;;;34.95;4.38;;;2.60;64.80;;;;;;4165552;28;20475;-81
2022/01/28 08:36:19;;;;;;;28.83;3.28;;;2.70;64.70;;;;;;4144805;28;20022;-82
2022/01/28 08:38:35;;;;;;;26.35;3.50;;;2.70;64.80;;;;;;4155329;28;20033;-82
2022/01/28 08:40:36;;;;;;;25.02;3.38;;;2.70;64.80;;;;;;4153786;28;20095;-82
2022/01/28 08:42:36;;;;;;;26.23;4.22;;;2.70;64.80;;;;;;4145324;28;20034;-81
2022/01/28 08:44:37;;;;;;;28.05;3.00;;;2.70;64.80;;;;;;4160165;28;20030;-82
2022/01/28 08:46:38;;;;;;;28.25;3.15;;;2.80;64.90;;;;;;4167099;28;20037;-82
2022/01/28 08:48:38;;;;;;;32.80;3.50;;;2.80;64.70;;;;;;4159029;28;20447;-82
2022/01/28 08:50:39;;;;;;;25.92;3.78;;;2.80;64.60;;;;;;4160500;28;20030;-82
2022/01/28 08:52:40;;;;;;;30.50;3.50;;;2.90;64.70;;;;;;4162303;28;20510;-82
2022/01/28 08:54:41;;;;;;;28.77;4.07;;;2.90;64.80;;;;;;4159509;28;20101;-82
2022/01/28 08:56:42;;;;;;;26.25;3.42;;;2.90;64.50;;;;;;4160069;28;20402;-82
2022/01/28 08:58:43;;;;;;;30.10;2.78;;;2.90;64.70;;;;;;4161262;28;20052;-82
2022/01/28 09:00:47;;;;;;;18.25;3.13;;;3.00;64.80;;;;;;4154890;28;20034;-83
2022/01/28 09:02:47;;;;;;;29.65;4.32;;;3.00;64.80;;;;;;4149866;28;20045;-82
2022/01/28 09:04:49;;;;;;;38.17;4.05;;;3.00;64.60;;;;;;4151893;28;20025;-82
2022/01/28 09:06:50;;;;;;;27.15;4.03;;;3.00;64.60;;;;;;4136611;28;20030;-83
2022/01/28 09:08:54;;;;;;;28.83;3.83;;;3.10;64.60;;;;;;4147226;28;20426;-83
2022/01/28 09:11:19;;;;;;;25.55;2.63;;;3.10;65.20;;;;;;4150898;28;20033;-83
2022/01/28 09:13:23;;;;;;;23.40;3.33;;;3.10;64.40;;;;;;4153448;28;20050;-83
2022/01/28 09:15:23;;;;;;;25.90;3.35;;;3.20;64.50;;;;;;4139594;28;20030;-83
2022/01/28 09:17:25;;;;;;;29.77;4.13;;;3.20;64.40;;;;;;4166997;28;20054;-83
2022/01/28 09:19:26;;;;;;;16.42;2.58;;;3.20;64.20;;;;;;4151331;28;20403;-83
2022/01/28 09:21:26;;;;;;;18.50;2.72;;;3.20;63.70;;;;;;4151341;28;20034;-83
2022/01/28 09:23:27;;;;;;;28.05;3.13;;;3.30;63.60;;;;;;4134036;28;20026;-83
2022/01/28 09:25:28;;;;;;;19.13;2.78;;;3.30;63.70;;;;;;4150293;28;20033;-83
2022/01/28 09:27:28;;;;;;;26.80;3.13;;;3.30;63.80;;;;;;4151213;28;20079;-83
2022/01/28 09:29:29;;;;;;;21.42;3.67;;;3.40;63.90;;;;;;4144286;28;20029;-83
2022/01/28 09:31:29;;;;;;;29.55;2.72;;;3.40;63.90;;;;;;4151795;28;20038;-83
2022/01/28 09:33:30;;;;;;;25.58;3.28;;;3.50;63.80;;;;;;4151138;28;20503;-82
2022/01/28 09:35:31;;;;;;;21.05;3.72;;;3.50;63.40;;;;;;4137881;28;20034;-83
2022/01/28 09:37:31;;;;;;;19.85;2.88;;;3.50;63.20;;;;;;4134141;28;20511;-82
2022/01/28 09:39:33;;;;;;;21.40;3.00;;;3.50;63.30;;;;;;4124783;28;20129;-82
2022/01/28 09:41:35;;;;;;;20.73;3.63;;;3.60;64.30;;;;;;4151821;28;20037;-81
2022/01/28 09:43:35;;;;;;;27.75;2.78;;;3.60;63.50;;;;;;4152705;28;20029;-82
2022/01/28 09:45:36;;;;;;;16.75;2.58;;;3.60;63.20;;;;;;4150632;28;20048;-82
2022/01/28 09:47:37;;;;;;;25.98;3.10;;;3.60;62.60;;;;;;4151423;28;20041;-82
2022/01/28 09:49:41;;;;;;;21.75;2.60;;;3.70;62.80;;;;;;4133117;28;20026;-82
2022/01/28 09:51:42;;;;;;;20.23;2.63;;;3.70;62.50;;;;;;4136668;28;20033;-81
2022/01/28 09:53:42;;;;;;;16.58;3.40;;;3.70;62.50;;;;;;4134954;28;20035;-81
2022/01/28 09:55:45;;;;;;;19.13;3.08;;;3.80;62.10;;;;;;4167129;28;20132;-82
2022/01/28 09:57:48;;;;;;;17.42;2.78;;;3.80;61.90;;;;;;4151394;28;20053;-81
2022/01/28 09:59:49;;;;;;;24.77;3.55;;;3.80;61.70;;;;;;4164947;28;20541;-81
2022/01/28 10:01:53;;;;;;;25.98;3.25;;;3.90;61.80;;;;;;4135892;28;20087;-82
2022/01/28 10:04:02;;;;;;;23.58;3.47;;;3.90;61.80;;;;;;4137338;28;20027;-82
2022/01/28 10:06:03;;;;;;;20.08;2.63;;;3.90;61.70;;;;;;4151446;28;20095;-82
2022/01/28 10:08:06;;;;;;;20.58;2.67;;;4.00;62.20;;;;;;4155745;28;20243;-83
2022/01/28 10:10:08;;;;;;;22.15;3.30;;;4.00;61.90;;;;;;4151048;28;20507;-82
2022/01/28 10:12:19;;;;;;;14.80;2.15;;;4.10;61.40;;;;;;4148807;28;20030;-82
2022/01/28 10:14:23;;;;;;;22.45;2.88;;;4.10;61.40;;;;;;4137597;28;20156;-81
2022/01/28 10:16:29;;;;;;;18.95;2.70;;;4.10;61.40;;;;;;4148875;28;20037;-81
2022/01/28 10:18:36;;;;;;;22.27;2.67;;;4.20;61.10;;;;;;4153523;28;20057;-81
2022/01/28 10:20:36;;;;;;;19.30;2.72;;;4.20;61.20;;;;;;4167124;28;20071;-81
2022/01/28 10:22:48;;;;;;;17.13;2.70;;;4.30;61.20;;;;;;4136200;28;20065;-82
2022/01/28 10:24:49;;;;;;;20.30;2.67;;;4.30;60.70;;;;;;4152325;28;20034;-82
2022/01/28 10:27:06;;;;;;;18.50;2.47;;;4.30;60.50;;;;;;4151657;28;20103;-82
2022/01/28 10:29:09;;;;;;;15.40;2.30;;;4.30;60.40;;;;;;4150960;28;20037;-81
2022/01/28 10:31:10;;;;;;;23.15;2.83;;;4.40;60.40;;;;;;4166782;28;20036;-82
2022/01/28 10:33:16;;;;;;;19.45;2.10;;;4.40;60.10;;;;;;4160598;28;20044;-81
2022/01/28 10:35:30;;;;;;;29.83;3.33;;;4.40;59.50;;;;;;4170340;28;20028;-82
2022/01/28 10:37:32;;;;;;;;;;;4.40;59.80;;;;;;4158099;28;20035;-81
2022/01/28 10:39:38;;;;;;;24.20;2.80;;;4.50;60.00;;;;;;4167848;28;20271;-81
2022/01/28 10:41:48;;;;;;;28.13;2.63;;;4.50;59.80;;;;;;4161663;28;20033;-81
2022/01/28 10:43:51;;;;;;;20.60;2.70;;;4.60;60.20;;;;;;4154346;28;20026;-81
2022/01/28 10:45:51;;;;;;;;;;;4.60;59.90;;;;;;4168011;28;20394;-81
2022/01/28 10:47:56;;;;;;;16.13;2.47;;;4.60;60.00;;;;;;4154807;28;19916;-81
2022/01/28 10:49:57;;;;;;;16.88;2.15;;;4.60;60.10;;;;;;4158697;28;20021;-81
2022/01/28 10:52:08;;;;;;;24.83;2.30;;;4.70;59.40;;;;;;4159691;28;20034;-81
2022/01/28 10:54:13;;;;;;;23.40;3.03;;;4.70;59.60;;;;;;4141626;28;20026;-81
2022/01/28 10:56:14;;;;;;;13.95;2.30;;;4.80;59.40;;;;;;4153964;28;20521;-81
2022/01/28 10:58:18;;;;;;;24.35;2.97;;;4.70;58.90;;;;;;4155756;28;20022;-81
2022/01/28 11:00:19;;;;;;;29.13;3.30;;;4.70;58.90;;;;;;4151727;28;20047;-81
2022/01/28 11:02:19;;;;;;;22.23;3.53;;;4.70;58.90;;;;;;4150256;28;20499;-81
2022/01/28 11:04:21;;;;;;;15.77;2.22;;;4.80;59.00;;;;;;4153132;28;20042;-82
2022/01/28 11:06:21;;;;;;;20.83;2.33;;;4.80;58.40;;;;;;4153745;28;20596;-82
2022/01/28 11:08:22;;;;;;;24.55;3.28;;;4.80;58.40;;;;;;4151865;28;20037;-82
2022/01/28 11:10:22;;;;;;;18.70;2.70;;;4.80;58.60;;;;;;4149104;28;20056;-82
2022/01/28 11:12:23;;;;;;;20.10;3.15;;;4.80;58.80;;;;;;4155179;28;20099;-82
2022/01/28 11:14:25;;;;;;;22.45;2.13;;;4.90;58.70;;;;;;4151089;28;21751;-82
2022/01/28 11:16:26;;;;;;;18.02;2.50;;;4.90;58.60;;;;;;4150475;28;20503;-82
2022/01/28 11:18:26;;;;;;;18.92;2.38;;;4.90;59.00;;;;;;4153204;28;20034;-83
2022/01/28 11:20:46;;;;;;;17.40;1.95;;;5.00;58.80;;;;;;4153988;28;20041;-82
2022/01/28 11:22:54;;;;;;;31.45;3.22;;;5.00;59.00;;;;;;4160326;28;20053;-82
2022/01/28 11:25:09;;;;;;;18.38;2.38;;;5.00;59.00;;;;;;4169578;28;20522;-81
2022/01/28 11:27:32;;;;;;;13.27;2.05;;;5.00;58.80;;;;;;4155363;28;20145;-82
2022/01/28 11:29:33;;;;;;;10.93;2.42;;;5.10;58.90;;;;;;4154976;28;20045;-82
2022/01/28 11:31:49;;;;;;;15.90;2.20;;;5.10;58.50;;;;;;4154736;28;20045;-82
2022/01/28 11:33:50;;;;;;;20.00;2.08;;;5.10;58.80;;;;;;4149094;28;20029;-82
2022/01/28 11:35:54;;;;;;;25.10;2.22;;;5.10;59.70;;;;;;4149758;28;20594;-82
2022/01/28 11:38:01;;;;;;;14.30;2.40;;;5.10;58.60;;;;;;4152793;28;20415;-82
2022/01/28 11:40:20;;;;;;;14.27;2.28;;;5.10;58.00;;;;;;4151495;28;20062;-82
2022/01/28 11:42:23;;;;;;;17.25;1.98;;;5.10;57.60;;;;;;4168795;28;20029;-82
2022/01/28 11:44:52;;;;;;;20.58;2.33;;;5.10;57.40;;;;;;4152441;28;20112;-82
2022/01/28 11:46:52;;;;;;;20.02;2.67;;;5.20;57.60;;;;;;4154304;28;20034;-83
2022/01/28 11:48:54;;;;;;;16.05;2.60;;;5.20;57.90;;;;;;4153401;28;20572;-83
2022/01/28 11:51:02;;;;;;;20.77;2.85;;;5.20;57.90;;;;;;4151317;28;20048;-82
2022/01/28 11:53:04;;;;;;;17.10;2.05;;;5.20;58.10;;;;;;4167481;28;20522;-82
2022/01/28 11:55:14;;;;;;;23.15;2.53;;;5.30;59.00;;;;;;4152330;28;20033;-82
2022/01/28 11:57:15;;;;;;;18.33;2.35;;;5.30;58.10;;;;;;4152532;28;20395;-82